Time;durP1;ratioP1;P1;durP2;ratioP2;P2;SDS_P1;SDS_P2;PMS_P1;PMS_P2;Temp;Humidity;BMP_temperature;BMP_pressure;BME280_temperature;BME280_humidity;BME280_pressure;Samples;Min_cycle;Max_cycle;Signal;HPM_P1;HPM_P2
2021/12/16 00:03:18;;;;;;;;;;;8.50;99.90;;;;;;8379871;28;19921;-69
2021/12/16 00:07:27;;;;;;;;;;;8.50;99.90;;;;;;8368311;28;19920;-70
2021/12/16 00:32:59;;;;;;;;;;;8.50;99.90;;;;;;8387222;28;20286;-69
2021/12/16 00:37:01;;;;;;;;;;;8.60;99.90;;;;;;8365838;28;20363;-69
2021/12/16 00:41:03;;;;;;;;;;;8.50;99.90;;;;;;8376387;28;19929;-69
2021/12/16 00:57:31;;;;;;;;;;;8.50;99.90;;;;;;8393677;28;19951;-69
2021/12/16 01:01:53;;;;;;;;;;;8.50;99.90;;;;;;8391383;28;19920;-69
2021/12/16 01:06:13;;;;;;;;;;;8.50;99.90;;;;;;8392559;28;19982;-69
2021/12/16 01:36:53;;;;;;;;;;;8.40;99.90;;;;;;8391716;28;19920;-69
2021/12/16 01:45:44;;;;;;;;;;;8.40;99.90;;;;;;8361382;28;19954;-69
2021/12/16 01:50:03;;;;;;;;;;;8.50;99.90;;;;;;8372708;28;20355;-69
2021/12/16 01:58:35;;;;;;;;;;;8.50;99.90;;;;;;8389535;28;19943;-69
2021/12/16 02:02:45;;;;;;;;;;;8.50;99.90;;;;;;8388778;28;19970;-69
2021/12/16 02:11:18;;;;;;;;;;;8.60;99.90;;;;;;8390306;28;20410;-69
2021/12/16 02:28:13;;;;;;;;;;;8.60;99.90;;;;;;8384704;28;19963;-69
2021/12/16 02:32:36;;;;;;;;;;;8.60;99.90;;;;;;8379945;28;19959;-70
2021/12/16 02:36:41;;;;;;;;;;;8.70;99.90;;;;;;8391124;28;20426;-70
2021/12/16 02:40:45;;;;;;;;;;;8.70;99.90;;;;;;8376317;28;19921;-69
2021/12/16 02:49:06;;;;;;;;;;;8.60;99.90;;;;;;8387496;28;20279;-69
2021/12/16 02:53:08;;;;;;;;;;;8.60;99.90;;;;;;8369216;28;19924;-69
2021/12/16 02:57:10;;;;;;;;;;;8.60;99.90;;;;;;8372716;28;19931;-69
2021/12/16 03:01:33;;;;;;;;;;;8.50;99.90;;;;;;8364928;28;19948;-69
2021/12/16 03:05:35;;;;;;;;;;;8.50;99.90;;;;;;8369802;28;19966;-69
2021/12/16 03:14:18;;;;;;;;;;;8.40;99.90;;;;;;8381794;28;19943;-69
2021/12/16 03:35:51;;;;;;;;;;;8.40;99.90;;;;;;8380572;28;19971;-69
2021/12/16 03:39:52;;;;;;;;;;;8.40;99.90;;;;;;8375819;28;19927;-69
2021/12/16 03:43:56;;;;;;;;;;;8.40;99.90;;;;;;8384858;28;20059;-69
2021/12/16 03:47:58;;;;;;;;;;;8.40;99.90;;;;;;8377095;28;20023;-69
2021/12/16 03:52:06;;;;;;;;;;;8.40;99.90;;;;;;8378299;28;19956;-69
2021/12/16 03:56:08;;;;;;;;;;;8.40;99.90;;;;;;8385417;28;19928;-70
2021/12/16 04:00:14;;;;;;;;;;;8.30;99.90;;;;;;8383731;28;19924;-69
2021/12/16 04:04:16;;;;;;;;;;;8.30;99.90;;;;;;8365675;28;20370;-69
2021/12/16 04:08:18;;;;;;;;;;;8.30;99.90;;;;;;8375691;28;19928;-69
2021/12/16 04:12:20;;;;;;;;;;;8.20;99.90;;;;;;8382861;28;20376;-69
2021/12/16 04:16:25;;;;;;;;;;;8.20;99.90;;;;;;8379271;28;19920;-69
2021/12/16 04:20:27;;;;;;;;;;;8.20;99.90;;;;;;8373368;28;19920;-69
2021/12/16 04:24:28;;;;;;;;;;;8.20;99.90;;;;;;8375534;28;19943;-69
2021/12/16 04:28:31;;;;;;;;;;;8.20;99.90;;;;;;8385956;28;19927;-69
2021/12/16 04:32:32;;;;;;;;;;;8.10;99.90;;;;;;8390911;28;19944;-69
2021/12/16 04:36:35;;;;;;;;;;;8.00;99.90;;;;;;8383933;28;19952;-69
2021/12/16 04:40:38;;;;;;;;;;;8.00;99.90;;;;;;8387520;28;19925;-69
2021/12/16 04:44:40;;;;;;;;;;;8.00;99.90;;;;;;8385886;28;19924;-70
2021/12/16 04:48:43;;;;;;;;;;;8.00;99.90;;;;;;8376571;28;19963;-69
2021/12/16 04:52:44;;;;;;;;;;;8.00;99.90;;;;;;8388877;28;19936;-69
2021/12/16 04:56:46;;;;;;;;;;;7.90;99.90;;;;;;8365665;28;19966;-69
2021/12/16 05:00:49;;;;;;;;;;;7.90;99.90;;;;;;8381334;28;19955;-70
2021/12/16 05:04:51;;;;;;;;;;;7.90;99.90;;;;;;8385895;28;20273;-70
2021/12/16 05:08:52;;;;;;;;;;;7.90;99.90;;;;;;8392834;28;20299;-69
2021/12/16 05:12:58;;;;;;;;;;;7.90;99.90;;;;;;8369319;28;19964;-69
2021/12/16 05:17:00;;;;;;;;;;;7.90;99.90;;;;;;8380529;28;20513;-70
2021/12/16 05:21:05;;;;;;;;;;;7.90;99.90;;;;;;8365449;28;20740;-71
2021/12/16 05:25:14;;;;;;;;;;;7.90;99.90;;;;;;8396079;28;19951;-70
2021/12/16 05:29:15;;;;;;;;;;;7.80;99.90;;;;;;8379484;28;19924;-69
2021/12/16 05:33:17;;;;;;;;;;;7.80;99.90;;;;;;8385019;28;20281;-70
2021/12/16 05:37:19;;;;;;;;;;;7.70;99.90;;;;;;8388042;28;19928;-69
2021/12/16 05:41:21;;;;;;;;;;;7.70;99.90;;;;;;8384596;28;19932;-69
2021/12/16 05:45:24;;;;;;;99.60;10.65;;;7.60;99.90;;;;;;8388120;28;20280;-69
2021/12/16 05:49:26;;;;;;;98.70;7.50;;;7.60;99.90;;;;;;8390735;28;20103;-70
2021/12/16 05:53:28;;;;;;;11.80;4.15;;;7.50;99.90;;;;;;8365869;28;20051;-69
2021/12/16 05:57:30;;;;;;;19.48;4.60;;;7.50;99.90;;;;;;8391750;28;19936;-70
2021/12/16 06:01:35;;;;;;;45.78;5.65;;;7.50;99.90;;;;;;8394374;28;20463;-70
2021/12/16 06:05:37;;;;;;;46.83;6.32;;;7.40;99.90;;;;;;8374528;28;20523;-70
2021/12/16 06:09:39;;;;;;;36.55;5.90;;;7.40;99.90;;;;;;8365208;28;20057;-70
2021/12/16 06:13:49;;;;;;;77.55;7.85;;;7.30;99.90;;;;;;8387958;28;20050;-70
2021/12/16 06:26:40;;;;;;;;;;;7.10;99.90;;;;;;8384674;28;20057;-69
2021/12/16 06:30:43;;;;;;;;;;;7.10;99.90;;;;;;8391872;28;20429;-70
2021/12/16 06:34:45;;;;;;;;;;;7.20;99.90;;;;;;8360787;28;19931;-69
2021/12/16 06:38:47;;;;;;;;;;;7.10;99.90;;;;;;8387367;28;20352;-69
2021/12/16 06:42:51;;;;;;;;;;;7.10;99.90;;;;;;8381904;28;19936;-69
2021/12/16 06:46:58;;;;;;;;;;;7.10;99.90;;;;;;8381542;28;20051;-69
2021/12/16 06:51:15;;;;;;;;;;;7.10;99.90;;;;;;8371280;28;19960;-69
2021/12/16 06:55:25;;;;;;;;;;;7.10;99.90;;;;;;8388497;28;19920;-70
2021/12/16 06:59:31;;;;;;;;;;;7.00;99.90;;;;;;8386840;28;19931;-69
2021/12/16 07:03:45;;;;;;;;;;;7.10;99.90;;;;;;8374030;28;20325;-70
2021/12/16 07:07:47;;;;;;;;;;;7.00;99.90;;;;;;8386371;28;19920;-69
2021/12/16 07:11:53;;;;;;;;;;;7.00;99.90;;;;;;8382434;28;19974;-69
2021/12/16 07:15:56;;;;;;;;;;;7.00;99.90;;;;;;8381023;28;19943;-69
2021/12/16 07:19:57;;;;;;;;;;;6.90;99.90;;;;;;8400481;28;19920;-69
2021/12/16 07:23:59;;;;;;;;;;;6.90;99.90;;;;;;8385370;28;19927;-69
2021/12/16 07:28:04;;;;;;;;;;;6.80;99.90;;;;;;8382900;28;19931;-69
2021/12/16 07:32:05;;;;;;;;;;;6.80;99.90;;;;;;8374124;28;20283;-69
2021/12/16 07:36:07;;;;;;;;;;;6.70;99.90;;;;;;8385519;28;20429;-69
2021/12/16 07:40:10;;;;;;;;;;;6.70;99.90;;;;;;8372285;28;19931;-69
2021/12/16 07:44:13;;;;;;;;;;;6.70;99.90;;;;;;8382553;28;19920;-70
2021/12/16 07:48:15;;;;;;;;;;;6.70;99.90;;;;;;8380846;28;20824;-70
2021/12/16 07:52:19;;;;;;;;;;;6.60;99.90;;;;;;8362928;28;20380;-69
2021/12/16 07:56:20;;;;;;;;;;;6.60;99.90;;;;;;8372392;28;19928;-70
2021/12/16 08:00:26;;;;;;;;;;;6.60;99.90;;;;;;8367649;28;19927;-70
2021/12/16 08:04:30;;;;;;;;;;;6.60;99.90;;;;;;8375008;28;19920;-69
2021/12/16 08:08:31;;;;;;;;;;;6.50;99.90;;;;;;8390196;28;19966;-69
2021/12/16 08:12:33;;;;;;;;;;;6.50;99.90;;;;;;8391119;28;24463;-69
2021/12/16 08:16:35;;;;;;;;;;;6.50;99.90;;;;;;8360297;28;19959;-69
2021/12/16 08:20:37;;;;;;;;;;;6.50;99.90;;;;;;8391982;28;19963;-70
2021/12/16 08:24:39;;;;;;;;;;;6.50;99.90;;;;;;8392021;28;19966;-69
2021/12/16 08:28:42;;;;;;;;;;;6.50;99.90;;;;;;8372802;28;20015;-69
2021/12/16 08:32:44;;;;;;;;;;;6.50;99.90;;;;;;8391508;28;19974;-69
2021/12/16 08:36:46;;;;;;;;;;;6.50;99.90;;;;;;8373318;28;20015;-69
2021/12/16 08:40:51;;;;;;;;;;;6.50;99.90;;;;;;8389345;28;19942;-70
2021/12/16 08:44:52;;;;;;;;;;;6.60;99.90;;;;;;8390728;28;20034;-69
2021/12/16 08:48:54;;;;;;;;;;;6.50;99.90;;;;;;8391664;28;19972;-69
2021/12/16 08:52:58;;;;;;;;;;;6.60;99.90;;;;;;8390537;28;19929;-69
2021/12/16 08:57:00;;;;;;;;;;;6.60;99.90;;;;;;8374101;28;19955;-69
2021/12/16 09:01:08;;;;;;;;;;;6.70;99.90;;;;;;8390640;28;19963;-70
2021/12/16 09:05:09;;;;;;;;;;;6.70;99.90;;;;;;8388128;28;19977;-70
2021/12/16 09:09:12;;;;;;;;;;;6.80;99.90;;;;;;8384846;28;20292;-69
2021/12/16 09:13:15;;;;;;;;;;;6.80;99.90;;;;;;8385309;28;20352;-69
2021/12/16 09:17:17;;;;;;;;;;;6.80;99.90;;;;;;8354317;28;19956;-69
2021/12/16 09:21:22;;;;;;;;;;;6.90;99.90;;;;;;8385816;28;19936;-69
2021/12/16 09:25:24;;;;;;;;;;;7.00;99.90;;;;;;8368218;28;20026;-69
2021/12/16 09:29:25;;;;;;;;;;;7.10;99.90;;;;;;8367607;28;19974;-69
2021/12/16 09:33:29;;;;;;;;;;;7.20;99.90;;;;;;8386227;28;20015;-69
2021/12/16 09:37:30;;;;;;;;;;;7.30;99.90;;;;;;8385166;28;19920;-69
2021/12/16 09:41:32;;;;;;;;;;;7.40;99.90;;;;;;8384576;28;19960;-69
2021/12/16 09:45:34;;;;;;;;;;;7.50;99.90;;;;;;8383702;28;19960;-70
2021/12/16 09:49:36;;;;;;;;;;;7.60;99.90;;;;;;8386067;28;19986;-69
2021/12/16 09:53:38;;;;;;;;;;;7.60;99.90;;;;;;8380248;28;19935;-69
2021/12/16 09:57:40;;;;;;;;;;;7.70;99.90;;;;;;8384587;28;19924;-69
2021/12/16 10:01:42;;;;;;;;;;;7.80;99.90;;;;;;8382331;28;19928;-69
2021/12/16 10:05:44;;;;;;;;;;;7.90;99.90;;;;;;8382547;28;19963;-70
2021/12/16 10:09:49;;;;;;;;;;;8.00;99.90;;;;;;8381373;28;19967;-69
2021/12/16 10:14:04;;;;;;;;;;;8.00;99.90;;;;;;8381445;28;19921;-70
2021/12/16 10:18:17;;;;;;;;;;;8.10;99.90;;;;;;8383459;28;19970;-70
2021/12/16 10:22:19;;;;;;;;;;;8.20;99.90;;;;;;8381446;28;19979;-71
2021/12/16 10:26:22;;;;;;;;;;;8.30;99.90;;;;;;8380082;28;19943;-69
2021/12/16 10:30:24;;;;;;;;;;;8.40;99.90;;;;;;8380114;28;19975;-69
2021/12/16 10:34:27;;;;;;;;;;;8.50;99.90;;;;;;8367976;28;19925;-70
2021/12/16 10:38:32;;;;;;;;;;;8.60;99.90;;;;;;8368565;28;19926;-70
2021/12/16 10:42:46;;;;;;;;;;;8.60;99.90;;;;;;8380582;28;19971;-69
2021/12/16 10:46:50;;;;;;;;;;;8.70;99.90;;;;;;8355849;28;20014;-70
2021/12/16 10:50:54;;;;;;;;;;;8.80;99.90;;;;;;8363824;28;19967;-70
2021/12/16 10:54:57;;;;;;;;;;;9.00;99.90;;;;;;8365707;28;19940;-70
2021/12/16 10:59:10;;;;;;;;;;;9.10;99.90;;;;;;8357450;28;19936;-69
2021/12/16 11:03:32;;;;;;;;;;;9.30;99.90;;;;;;8375878;28;19959;-69
2021/12/16 11:07:39;;;;;;;;;;;9.60;99.90;;;;;;8378772;28;19920;-69
2021/12/16 11:11:40;;;;;;;;;;;9.90;99.90;;;;;;8378551;28;19931;-70
2021/12/16 11:15:43;;;;;;;;;;;10.00;99.90;;;;;;8377545;28;19968;-70
2021/12/16 11:19:45;;;;;;;;;;;10.10;99.90;;;;;;8374903;28;20019;-70
2021/12/16 11:23:50;;;;;;;;;;;10.20;99.90;;;;;;8360529;28;19935;-70
2021/12/16 11:27:54;;;;;;;;;;;10.30;99.90;;;;;;8347087;28;19971;-70
2021/12/16 11:31:56;;;;;;;;;;;10.60;99.90;;;;;;8372864;28;19974;-69
2021/12/16 11:36:18;;;;;;;13.27;9.02;;;10.90;99.90;;;;;;8380958;28;19967;-70
2021/12/16 11:40:20;;;;;;;;;;;11.30;99.90;;;;;;8375997;28;20059;-71
2021/12/16 11:44:23;;;;;;;;;;;11.60;99.90;;;;;;8382022;28;19982;-70
2021/12/16 11:48:36;;;;;;;;;;;12.10;99.90;;;;;;8376626;28;19962;-70
2021/12/16 11:52:39;;;;;;;;;;;12.80;99.90;;;;;;8380402;28;19960;-71
2021/12/16 11:56:44;;;;;;;;;;;13.60;99.90;;;;;;8345920;28;19920;-71
2021/12/16 12:00:46;;;;;;;;;;;14.40;99.90;;;;;;8346029;28;20435;-70
2021/12/16 12:04:48;;;;;;;;;;;15.10;99.90;;;;;;8377646;28;19927;-70
2021/12/16 12:08:50;;;;;;;;;;;15.50;99.90;;;;;;8376083;28;20360;-71
2021/12/16 12:12:58;;;;;;;;;;;15.80;99.90;;;;;;8372947;28;20388;-70
2021/12/16 12:17:04;;;;;;;;;;;15.90;99.90;;;;;;8369774;28;20328;-70
2021/12/16 12:21:33;;;;;;;11.60;9.05;;;16.30;99.90;;;;;;8376419;28;20414;-70
2021/12/16 12:25:34;;;;;;;;;;;16.50;99.90;;;;;;8369394;28;20537;-70
2021/12/16 12:29:48;;;;;;;;;;;16.50;99.90;;;;;;8370584;28;19929;-71
2021/12/16 12:33:50;;;;;;;;;;;16.50;99.90;;;;;;8376884;28;20003;-71
2021/12/16 12:37:55;;;;;;;;;;;16.40;99.90;;;;;;8377277;28;19961;-71
2021/12/16 12:41:57;;;;;;;;;;;15.90;99.90;;;;;;8379662;28;19928;-70
2021/12/16 12:45:59;;;;;;;;;;;15.30;99.90;;;;;;8381288;28;19928;-70
2021/12/16 12:50:14;;;;;;;;;;;14.70;99.90;;;;;;8386494;28;19920;-70
2021/12/16 12:54:26;;;;;;;;;;;14.20;99.90;;;;;;8385074;28;20265;-70
2021/12/16 12:58:29;;;;;;;;;;;13.80;99.90;;;;;;8383786;28;19964;-70
2021/12/16 13:02:34;;;;;;;;;;;13.50;99.90;;;;;;8379692;28;19920;-70
2021/12/16 13:06:56;;;;;;;;;;;13.60;99.90;;;;;;8366562;28;19928;-71
2021/12/16 13:11:09;;;;;;;12.85;8.75;;;14.10;99.90;;;;;;8354408;28;19960;-71
2021/12/16 13:28:20;;;;;;;;;;;14.50;99.90;;;;;;8387704;28;20626;-70
2021/12/16 13:32:30;;;;;;;;;;;14.00;99.90;;;;;;8386963;28;20364;-70
2021/12/16 13:36:39;;;;;;;;;;;13.60;99.90;;;;;;8384882;28;19927;-71
2021/12/16 13:40:41;;;;;;;;;;;13.50;99.90;;;;;;8362747;28;19925;-70
2021/12/16 13:44:49;;;;;;;;;;;13.30;99.90;;;;;;8385875;28;19952;-70
2021/12/16 14:06:33;;;;;;;;;;;12.90;99.90;;;;;;8384740;28;19931;-70
2021/12/16 14:10:44;;;;;;;;;;;12.80;99.90;;;;;;8370598;28;19986;-70
2021/12/16 14:14:59;;;;;;;;;;;12.70;99.90;;;;;;8383960;28;20333;-70
2021/12/16 14:23:18;;;;;;;;;;;12.40;99.90;;;;;;8382105;28;19931;-70
2021/12/16 14:31:07;;;;;;;;;;;12.30;99.90;;;;;;8367459;28;19964;-70
2021/12/16 14:41:07;;;;;;;;;;;11.90;99.90;;;;;;8382216;28;20398;-70
2021/12/16 14:49:05;;;;;;;;;;;11.90;99.90;;;;;;8381306;28;19931;-70
2021/12/16 14:53:26;;;;;;;;;;;12.30;99.90;;;;;;8377886;28;19933;-70
2021/12/16 14:57:31;;;;;;;;;;;12.70;99.90;;;;;;8382336;28;20409;-70
2021/12/16 15:01:35;;;;;;;;;;;12.90;99.90;;;;;;8380726;28;19974;-71
2021/12/16 15:05:44;;;;;;;;;;;13.10;99.90;;;;;;8382930;28;19970;-70
2021/12/16 15:09:46;;;;;;;;;;;13.00;99.90;;;;;;8381404;28;19932;-70
2021/12/16 15:13:54;;;;;;;;;;;12.90;99.90;;;;;;8371297;28;19970;-70
2021/12/16 15:43:32;;;;;;;;;;;10.80;99.90;;;;;;8365960;28;19933;-69
2021/12/16 15:47:42;;;;;;;;;;;10.50;99.90;;;;;;8368871;28;20067;-69
2021/12/16 15:51:45;;;;;;;;;;;10.30;99.90;;;;;;8372446;28;19928;-69
2021/12/16 15:56:00;;;;;;;;;;;10.10;99.90;;;;;;8373188;28;20245;-69
2021/12/16 16:00:17;;;;;;;;;;;10.00;99.90;;;;;;8367767;28;20101;-70
2021/12/16 16:04:27;;;;;;;;;;;9.80;99.90;;;;;;8370674;28;19928;-70
2021/12/16 16:08:30;;;;;;;;;;;9.70;99.90;;;;;;8373466;28;19964;-70
2021/12/16 16:12:33;;;;;;;;;;;9.70;99.90;;;;;;8361209;28;20394;-70
2021/12/16 16:16:41;;;;;;;;;;;9.60;99.90;;;;;;8383551;28;19931;-69
2021/12/16 16:20:45;;;;;;;;;;;9.50;99.90;;;;;;8384884;28;19928;-69
2021/12/16 16:24:48;;;;;;;;;;;9.40;99.90;;;;;;8365233;28;19972;-69
2021/12/16 16:28:52;;;;;;;;;;;9.40;99.90;;;;;;8385592;28;19928;-69
2021/12/16 16:32:58;;;;;;;;;;;9.30;99.90;;;;;;8382124;28;19967;-69
2021/12/16 16:37:02;;;;;;;;;;;9.20;99.90;;;;;;8387341;28;19972;-69
2021/12/16 16:41:05;;;;;;;;;;;9.10;99.90;;;;;;8385317;28;19936;-69
2021/12/16 16:45:08;;;;;;;;;;;9.00;99.90;;;;;;8383793;28;19932;-69
2021/12/16 16:49:14;;;;;;;;;;;8.90;99.90;;;;;;8386899;28;19939;-69
2021/12/16 16:53:16;;;;;;;;;;;8.90;99.90;;;;;;8384918;28;19936;-69
2021/12/16 16:57:22;;;;;;;;;;;8.80;99.90;;;;;;8384639;28;20392;-69
2021/12/16 17:01:24;;;;;;;;;;;8.70;99.90;;;;;;8354227;28;19956;-69
2021/12/16 17:05:31;;;;;;;;;;;8.70;99.90;;;;;;8355070;28;20622;-70
2021/12/16 17:09:34;;;;;;;;;;;8.60;99.90;;;;;;8378263;28;20359;-69
2021/12/16 17:13:46;;;;;;;;;;;8.50;99.90;;;;;;8383429;28;20231;-69
2021/12/16 17:17:48;;;;;;;;;;;8.50;99.90;;;;;;8370524;28;19960;-69
2021/12/16 17:21:50;;;;;;;;;;;8.40;99.90;;;;;;8381761;28;20291;-69
2021/12/16 17:25:52;;;;;;;;;;;8.30;99.90;;;;;;8363187;28;19960;-69
2021/12/16 17:29:59;;;;;;;;;;;8.30;99.90;;;;;;8389807;28;19924;-69
2021/12/16 17:34:21;;;;;;;;;;;8.20;99.90;;;;;;8376677;28;19940;-70
2021/12/16 17:38:24;;;;;;;;;;;8.10;99.90;;;;;;8371260;28;20043;-69
2021/12/16 17:42:37;;;;;;;;;;;8.10;99.90;;;;;;8383722;28;19963;-69
2021/12/16 17:46:41;;;;;;;;;;;8.10;99.90;;;;;;8357505;28;20067;-69
2021/12/16 17:50:45;;;;;;;;;;;8.10;99.90;;;;;;8378664;28;19927;-69
2021/12/16 17:54:49;;;;;;;;;;;8.10;99.90;;;;;;8357861;28;20025;-69
2021/12/16 17:58:53;;;;;;;;;;;8.00;99.90;;;;;;8356265;28;19983;-69
2021/12/16 18:02:55;;;;;;;;;;;8.00;99.90;;;;;;8368279;28;19973;-70
2021/12/16 18:06:58;;;;;;;;;;;7.90;99.90;;;;;;8356975;28;20037;-69
2021/12/16 18:11:05;;;;;;;;;;;7.90;99.90;;;;;;8361580;28;20402;-69
2021/12/16 18:15:18;;;;;;;;;;;7.80;99.90;;;;;;8343184;28;19987;-70
2021/12/16 18:19:22;;;;;;;;;;;7.80;99.90;;;;;;8362479;28;19931;-69
2021/12/16 18:23:27;;;;;;;;;;;7.70;99.90;;;;;;8354727;28;24631;-69
2021/12/16 18:27:38;;;;;;;;;;;7.60;99.90;;;;;;8346436;28;19924;-70
2021/12/16 18:31:42;;;;;;;;;;;7.50;99.90;;;;;;8341324;28;19967;-69
2021/12/16 18:36:03;;;;;;;;;;;7.50;99.90;;;;;;8359548;28;19954;-69
2021/12/16 18:40:06;;;;;;;;;;;7.40;99.90;;;;;;8363865;28;19951;-69
2021/12/16 18:44:09;;;;;;;;;;;7.40;99.90;;;;;;8363494;28;19971;-69
2021/12/16 18:48:28;;;;;;;;;;;7.40;99.90;;;;;;8360055;28;20367;-69
2021/12/16 18:56:35;;;;;;;;;;;7.30;99.90;;;;;;8361107;28;19974;-69
2021/12/16 19:00:38;;;;;;;;;;;7.20;99.90;;;;;;8361567;28;20387;-69
2021/12/16 19:04:42;;;;;;;;;;;7.20;99.90;;;;;;8343121;28;19936;-69
2021/12/16 19:08:43;;;;;;;;;;;7.20;99.90;;;;;;8359933;28;19957;-69
2021/12/16 19:12:46;;;;;;;;;;;7.30;99.90;;;;;;8361917;28;19967;-69
2021/12/16 19:16:49;;;;;;;;;;;7.30;99.90;;;;;;8370351;28;20023;-69
2021/12/16 19:20:50;;;;;;;;;;;7.30;99.90;;;;;;8364067;28;19964;-70
2021/12/16 19:24:52;;;;;;;;;;;7.30;99.90;;;;;;8372198;28;19982;-70
2021/12/16 19:28:54;;;;;;;;;;;7.30;99.90;;;;;;8368841;28;20351;-70
2021/12/16 19:32:57;;;;;;;;;;;7.30;99.90;;;;;;8345214;28;20075;-69
2021/12/16 19:36:59;;;;;;;;;;;7.30;99.90;;;;;;8370436;28;20289;-69
2021/12/16 19:41:04;;;;;;;;;;;7.40;99.90;;;;;;8368611;28;19924;-69
2021/12/16 19:45:06;;;;;;;;;;;7.50;99.90;;;;;;8346872;28;19920;-70
2021/12/16 19:49:09;;;;;;;;;;;7.60;99.90;;;;;;8384797;28;20201;-69
2021/12/16 19:53:11;;;;;;;;;;;7.60;99.90;;;;;;8371690;28;20030;-69
2021/12/16 19:57:13;;;;;;;;;;;7.60;99.90;;;;;;8377479;28;19943;-69
2021/12/16 20:01:20;;;;;;;;;;;7.60;99.90;;;;;;8369422;28;21243;-70
2021/12/16 20:05:23;;;;;;;;;;;7.50;99.90;;;;;;8373097;28;19927;-69
2021/12/16 20:09:25;;;;;;;;;;;7.50;99.90;;;;;;8376716;28;19974;-70
2021/12/16 20:13:30;;;;;;;;;;;7.60;99.90;;;;;;8374011;28;20059;-70
2021/12/16 20:17:32;;;;;;;;;;;7.60;99.90;;;;;;8380254;28;19975;-69
2021/12/16 20:21:38;;;;;;;;;;;7.60;99.90;;;;;;8372197;28;20380;-69
2021/12/16 20:25:45;;;;;;;;;;;7.60;99.90;;;;;;8375311;28;20414;-69
2021/12/16 20:30:00;;;;;;;;;;;7.70;99.90;;;;;;8349136;28;20003;-69
2021/12/16 20:34:08;;;;;;;;;;;7.70;99.90;;;;;;8388044;28;20363;-69
2021/12/16 20:38:10;;;;;;;;;;;7.70;99.90;;;;;;8375546;28;20010;-69
2021/12/16 20:42:19;;;;;;;;;;;7.70;99.90;;;;;;8371561;28;19984;-69
2021/12/16 20:46:25;;;;;;;;;;;7.70;99.90;;;;;;8372818;28;20348;-69
2021/12/16 20:50:29;;;;;;;;;;;7.70;99.90;;;;;;8390694;28;19962;-70
2021/12/16 20:54:32;;;;;;;;;;;7.70;99.90;;;;;;8375155;28;19927;-69
2021/12/16 20:58:37;;;;;;;;;;;7.80;99.90;;;;;;8378922;28;19963;-69
2021/12/16 21:02:39;;;;;;;;;;;7.80;99.90;;;;;;8347371;28;19971;-69
2021/12/16 21:06:41;;;;;;;;;;;7.80;99.90;;;;;;8361437;28;19920;-69
2021/12/16 21:10:44;;;;;;;;;;;7.80;99.90;;;;;;8383743;28;19931;-69
2021/12/16 21:14:50;;;;;;;;;;;7.80;99.90;;;;;;8383014;28;20678;-70
2021/12/16 21:18:51;;;;;;;;;;;7.90;99.90;;;;;;8383284;28;19924;-69
2021/12/16 21:22:54;;;;;;;;;;;7.90;99.90;;;;;;8383382;28;19928;-69
2021/12/16 21:26:55;;;;;;;;;;;7.90;99.90;;;;;;8371600;28;19925;-69
2021/12/16 21:30:58;;;;;;;;;;;7.90;99.90;;;;;;8383934;28;19959;-69
2021/12/16 21:35:06;;;;;;;;;;;7.90;99.90;;;;;;8384954;28;19924;-69
2021/12/16 21:39:12;;;;;;;;;;;8.00;99.90;;;;;;8380440;28;20400;-69
2021/12/16 21:43:14;;;;;;;;;;;7.90;99.90;;;;;;8379949;28;19921;-70
2021/12/16 21:47:15;;;;;;;;;;;7.90;99.90;;;;;;8382629;28;19927;-70
2021/12/16 21:51:17;;;;;;;;;;;7.90;99.90;;;;;;8398305;28;19968;-69
2021/12/16 21:55:19;;;;;;;;;;;7.90;99.90;;;;;;8380724;28;19924;-69
2021/12/16 21:59:21;;;;;;;;;;;8.00;99.90;;;;;;8383217;28;19952;-69
2021/12/16 22:03:25;;;;;;;;;;;8.00;99.90;;;;;;8376523;28;20000;-69
2021/12/16 22:07:26;;;;;;;;;;;8.00;99.90;;;;;;8384641;28;20379;-69
2021/12/16 22:11:29;;;;;;;;;;;8.00;99.90;;;;;;8378317;28;19927;-69
2021/12/16 22:15:30;;;;;;;;;;;8.00;99.90;;;;;;8383367;28;19943;-70
2021/12/16 22:19:32;;;;;;;;;;;8.00;99.90;;;;;;8385167;28;19932;-69
2021/12/16 22:23:35;;;;;;;;;;;8.10;99.90;;;;;;8387767;28;20027;-69
2021/12/16 22:27:37;;;;;;;;;;;8.10;99.90;;;;;;8384238;28;20552;-69
2021/12/16 22:31:40;;;;;;;;;;;8.10;99.90;;;;;;8388466;28;19936;-70
2021/12/16 22:35:43;;;;;;;;;;;8.10;99.90;;;;;;8385545;28;19921;-69
2021/12/16 22:39:45;;;;;;;;;;;8.10;99.90;;;;;;8382623;28;19979;-69
2021/12/16 22:43:47;;;;;;;;;;;8.10;99.90;;;;;;8373322;28;20289;-69
2021/12/16 22:47:49;;;;;;;;;;;8.10;99.90;;;;;;8375406;28;19924;-69
2021/12/16 22:51:51;;;;;;;;;;;8.10;99.90;;;;;;8386170;28;19920;-69
2021/12/16 22:55:53;;;;;;;;;;;8.10;99.90;;;;;;8383637;28;19921;-69
2021/12/16 22:59:54;;;;;;;;;;;8.10;99.90;;;;;;8380592;28;19971;-69
2021/12/16 23:03:57;;;;;;;;;;;8.10;99.90;;;;;;8366725;28;20026;-69
2021/12/16 23:07:58;;;;;;;;;;;8.10;99.90;;;;;;8387979;28;19925;-69
2021/12/16 23:12:00;;;;;;;;;;;8.10;99.90;;;;;;8367587;28;19921;-70
2021/12/16 23:16:18;;;;;;;;;;;8.20;99.90;;;;;;8373655;28;19960;-70
2021/12/16 23:24:39;;;;;;;;;;;8.10;99.90;;;;;;8388794;28;20335;-69
2021/12/16 23:28:42;;;;;;;;;;;8.10;99.90;;;;;;8381652;28;19921;-69
2021/12/16 23:32:44;;;;;;;;;;;8.10;99.90;;;;;;8376455;28;19932;-69
2021/12/16 23:36:45;;;;;;;;;;;8.10;99.90;;;;;;8391572;28;19924;-69
2021/12/16 23:40:48;;;;;;;;;;;8.10;99.90;;;;;;8387831;28;19928;-69
2021/12/16 23:53:19;;;;;;;;;;;8.10;99.90;;;;;;8379210;28;19963;-69
2021/12/16 23:57:21;;;;;;;;;;;8.10;99.90;;;;;;8386190;28;19927;-69
